Time;durP1;ratioP1;P1;durP2;ratioP2;P2;SDS_P1;SDS_P2;PMS_P1;PMS_P2;Temp;Humidity;BMP_temperature;BMP_pressure;BME280_temperature;BME280_humidity;BME280_pressure;Samples;Min_cycle;Max_cycle;Signal;HPM_P1;HPM_P2
2022/03/15 00:00:34;;;;;;;2.00;1.70;;;20.40;31.80;;;;;;5112976;28;20043;-80
2022/03/15 00:03:00;;;;;;;2.00;1.80;;;20.40;31.80;;;;;;5095119;28;20070;-80
2022/03/15 00:05:26;;;;;;;2.35;1.98;;;20.40;31.80;;;;;;5112873;28;20415;-80
2022/03/15 00:07:52;;;;;;;2.40;2.00;;;20.40;31.80;;;;;;5112980;28;20081;-80
2022/03/15 00:10:18;;;;;;;3.17;2.10;;;20.40;31.80;;;;;;5094554;28;20047;-80
2022/03/15 00:12:45;;;;;;;1.65;1.55;;;20.40;31.80;;;;;;5094844;28;20055;-80
2022/03/15 00:15:12;;;;;;;2.92;2.17;;;20.40;31.80;;;;;;5112972;28;20365;-80
2022/03/15 00:17:41;;;;;;;1.77;1.67;;;20.40;31.80;;;;;;5092851;28;20056;-80
2022/03/15 00:20:10;;;;;;;2.13;1.90;;;20.40;31.80;;;;;;5112714;28;20108;-80
2022/03/15 00:22:38;;;;;;;2.00;1.80;;;20.40;31.80;;;;;;5092370;28;20051;-80
2022/03/15 00:25:06;;;;;;;1.98;1.77;;;20.40;31.80;;;;;;5112722;28;20043;-80
2022/03/15 00:27:34;;;;;;;3.33;2.30;;;20.40;31.80;;;;;;5094458;28;20507;-80
2022/03/15 00:30:00;;;;;;;1.80;1.70;;;20.40;31.80;;;;;;5093043;28;20142;-79
2022/03/15 00:32:26;;;;;;;2.08;1.95;;;20.40;31.80;;;;;;5112553;28;20055;-80
2022/03/15 00:34:52;;;;;;;1.98;1.80;;;20.40;31.80;;;;;;5112461;28;20050;-80
2022/03/15 00:37:18;;;;;;;2.08;1.88;;;20.40;31.80;;;;;;5093235;28;20381;-79
2022/03/15 00:39:44;;;;;;;2.13;1.90;;;20.40;31.80;;;;;;5092471;28;20052;-79
2022/03/15 00:42:10;;;;;;;3.83;2.00;;;20.40;31.80;;;;;;5094224;28;20109;-80
2022/03/15 00:44:36;;;;;;;2.08;1.83;;;20.40;31.80;;;;;;5112476;28;20078;-80
2022/03/15 00:47:02;;;;;;;2.20;1.88;;;20.40;31.80;;;;;;5094231;28;20052;-80
2022/03/15 00:49:28;;;;;;;2.90;2.00;;;20.40;31.80;;;;;;5112414;28;20063;-80
2022/03/15 00:51:54;;;;;;;1.90;1.70;;;20.40;31.80;;;;;;5093433;28;20044;-79
2022/03/15 00:54:23;;;;;;;2.78;1.85;;;20.40;31.80;;;;;;5112422;28;20097;-79
2022/03/15 00:56:50;;;;;;;2.65;1.85;;;20.40;31.80;;;;;;5112275;28;20047;-80
2022/03/15 00:59:16;;;;;;;2.35;1.80;;;20.40;31.80;;;;;;5112131;28;20079;-80
2022/03/15 01:01:42;;;;;;;2.53;2.28;;;20.40;31.70;;;;;;5112229;28;20059;-79
2022/03/15 01:04:08;;;;;;;2.47;2.00;;;20.40;31.80;;;;;;5112225;28;20127;-79
2022/03/15 01:06:34;;;;;;;2.30;1.85;;;20.40;31.80;;;;;;5095865;28;20445;-79
2022/03/15 01:09:02;;;;;;;2.00;1.70;;;20.40;31.80;;;;;;5080484;28;20044;-80
2022/03/15 01:11:28;;;;;;;2.25;1.80;;;20.40;31.70;;;;;;5116293;28;20060;-80
2022/03/15 01:13:53;;;;;;;1.90;1.70;;;20.40;31.80;;;;;;5115696;28;20457;-80
2022/03/15 01:16:19;;;;;;;2.10;1.83;;;20.40;31.80;;;;;;5097890;28;20051;-80
2022/03/15 01:18:45;;;;;;;1.58;1.48;;;20.40;31.80;;;;;;5096751;28;20052;-80
2022/03/15 01:21:13;;;;;;;2.55;2.10;;;20.40;31.80;;;;;;5097221;28;20083;-80
2022/03/15 01:23:40;;;;;;;2.05;1.90;;;20.40;31.80;;;;;;5115789;28;20047;-79
2022/03/15 01:26:06;;;;;;;2.28;1.70;;;20.40;31.80;;;;;;5115615;28;20074;-80
2022/03/15 01:28:31;;;;;;;2.15;1.95;;;20.40;31.80;;;;;;5096403;28;20074;-80
2022/03/15 01:30:57;;;;;;;2.22;1.75;;;20.40;31.80;;;;;;5097054;28;20090;-79
2022/03/15 01:33:23;;;;;;;2.10;1.70;;;20.40;31.80;;;;;;5096955;28;20080;-80
2022/03/15 01:35:48;;;;;;;1.60;1.50;;;20.40;31.80;;;;;;5115375;28;20448;-80
2022/03/15 01:38:14;;;;;;;2.40;1.98;;;20.40;31.80;;;;;;5095983;28;20052;-80
2022/03/15 01:40:40;;;;;;;1.90;1.50;;;20.40;31.80;;;;;;5096948;28;20043;-79
2022/03/15 01:43:09;;;;;;;2.10;1.90;;;20.40;31.80;;;;;;5096978;28;20113;-80
2022/03/15 01:45:38;;;;;;;2.00;1.73;;;20.40;31.80;;;;;;5115118;28;20052;-80
2022/03/15 01:48:05;;;;;;;2.40;2.03;;;20.40;31.80;;;;;;5114961;28;20058;-80
2022/03/15 01:50:31;;;;;;;2.03;1.83;;;20.40;31.80;;;;;;5115188;28;20188;-80
2022/03/15 01:52:57;;;;;;;2.42;2.20;;;20.40;31.80;;;;;;5115189;28;20083;-80
2022/03/15 01:55:23;;;;;;;2.28;1.70;;;20.40;31.80;;;;;;5115033;28;20051;-80
2022/03/15 01:57:50;;;;;;;1.90;1.70;;;20.40;31.80;;;;;;5096574;28;20055;-80
2022/03/15 02:00:17;;;;;;;1.80;1.70;;;20.40;31.80;;;;;;5096552;28;20510;-80
2022/03/15 02:02:49;;;;;;;2.33;1.45;;;20.40;31.80;;;;;;5114956;28;20070;-80
2022/03/15 02:05:15;;;;;;;2.20;1.98;;;20.40;31.80;;;;;;5078540;28;20484;-80
2022/03/15 02:07:44;;;;;;;2.10;1.90;;;20.40;31.80;;;;;;5096417;28;20077;-80
2022/03/15 02:10:10;;;;;;;2.50;1.77;;;20.40;31.80;;;;;;5094650;28;20052;-80
2022/03/15 02:12:38;;;;;;;1.65;1.55;;;20.40;31.80;;;;;;5114735;28;20087;-80
2022/03/15 02:15:06;;;;;;;1.92;1.55;;;20.40;31.90;;;;;;5114527;28;20055;-80
2022/03/15 02:17:33;;;;;;;2.20;2.00;;;20.40;31.90;;;;;;5094285;28;20052;-80
2022/03/15 02:19:59;;;;;;;1.73;1.45;;;20.40;31.90;;;;;;5114518;28;20095;-80
2022/03/15 02:22:26;;;;;;;2.10;1.90;;;20.40;31.90;;;;;;5114629;28;20487;-80
2022/03/15 02:24:52;;;;;;;1.80;1.60;;;20.40;31.90;;;;;;5095435;28;20048;-79
2022/03/15 02:27:21;;;;;;;1.67;1.58;;;20.40;31.90;;;;;;5096617;28;20059;-80
2022/03/15 02:29:46;;;;;;;1.90;1.77;;;20.40;31.80;;;;;;5114276;28;20047;-80
2022/03/15 02:32:12;;;;;;;2.03;1.77;;;20.40;31.80;;;;;;5115083;28;20055;-80
2022/03/15 02:34:37;;;;;;;2.33;1.95;;;20.40;31.90;;;;;;5114329;28;20122;-80
2022/03/15 02:37:03;;;;;;;1.80;1.60;;;20.40;31.80;;;;;;5115006;28;20048;-80
2022/03/15 02:39:28;;;;;;;1.85;1.58;;;20.40;31.80;;;;;;5114169;28;20147;-80
2022/03/15 02:41:54;;;;;;;2.40;1.92;;;20.40;31.80;;;;;;5114615;28;20484;-79
2022/03/15 02:44:23;;;;;;;1.70;1.60;;;20.50;31.90;;;;;;5114117;28;20046;-79
2022/03/15 02:46:51;;;;;;;1.80;1.67;;;20.40;31.80;;;;;;5095938;28;20056;-80
2022/03/15 02:49:23;;;;;;;2.13;1.92;;;20.40;31.80;;;;;;5114134;28;20096;-80
2022/03/15 02:51:51;;;;;;;;;;;20.40;31.90;;;;;;5096655;28;20087;-80
2022/03/15 02:54:18;;;;;;;1.85;1.60;;;20.40;31.90;;;;;;5114492;28;20458;-79
2022/03/15 02:56:46;;;;;;;1.90;1.67;;;20.40;31.90;;;;;;5113917;28;20083;-80
2022/03/15 02:59:16;;;;;;;2.65;1.90;;;20.40;31.90;;;;;;5095659;28;20055;-80
2022/03/15 03:01:42;;;;;;;1.83;1.67;;;20.40;31.90;;;;;;5113925;28;20060;-79
2022/03/15 03:04:08;;;;;;;1.85;1.67;;;20.40;31.90;;;;;;5113898;28;20113;-80
2022/03/15 03:06:34;;;;;;;2.35;1.90;;;20.40;31.90;;;;;;5113916;28;20048;-80
2022/03/15 03:09:00;;;;;;;1.92;1.60;;;20.40;31.80;;;;;;5113725;28;20488;-80
2022/03/15 03:11:25;;;;;;;2.08;1.80;;;20.50;31.90;;;;;;5094645;28;20059;-80
2022/03/15 03:13:55;;;;;;;2.00;1.80;;;20.40;31.90;;;;;;5113841;28;20051;-80
2022/03/15 03:16:21;;;;;;;2.28;1.55;;;20.40;31.80;;;;;;5113718;28;20046;-80
2022/03/15 03:18:48;;;;;;;1.70;1.60;;;20.50;31.90;;;;;;5113731;28;20039;-80
2022/03/15 03:21:13;;;;;;;2.00;1.65;;;20.50;31.80;;;;;;5094811;28;20097;-80
2022/03/15 03:23:39;;;;;;;1.58;1.48;;;20.50;31.80;;;;;;5113698;28;20047;-80
2022/03/15 03:26:06;;;;;;;1.65;1.50;;;20.50;31.70;;;;;;5093424;28;20052;-80
2022/03/15 03:28:38;;;;;;;1.60;1.50;;;20.60;31.80;;;;;;5113050;28;20181;-80
2022/03/15 03:31:09;;;;;;;1.70;1.60;;;20.60;31.80;;;;;;5095574;28;20134;-80
2022/03/15 03:33:35;;;;;;;1.50;1.40;;;20.60;31.80;;;;;;5095252;28;20070;-79
2022/03/15 03:36:02;;;;;;;1.63;1.50;;;20.60;31.70;;;;;;5095344;28;20055;-80
2022/03/15 03:38:28;;;;;;;1.58;1.48;;;20.60;31.70;;;;;;5113243;28;20121;-79
2022/03/15 03:40:54;;;;;;;1.88;1.67;;;20.60;31.70;;;;;;5093988;28;20399;-79
2022/03/15 03:43:21;;;;;;;1.90;1.70;;;20.60;31.70;;;;;;5095299;28;20398;-79
2022/03/15 03:45:48;;;;;;;2.65;2.00;;;20.70;31.70;;;;;;5094999;28;20134;-79
2022/03/15 03:48:13;;;;;;;1.80;1.60;;;20.70;31.70;;;;;;5113269;28;20054;-80
2022/03/15 03:50:40;;;;;;;1.80;1.67;;;20.70;31.70;;;;;;5113169;28;20052;-79
2022/03/15 03:53:06;;;;;;;2.08;1.48;;;20.70;31.60;;;;;;5113245;28;20453;-79
2022/03/15 03:55:33;;;;;;;2.13;1.65;;;20.70;31.60;;;;;;5095497;28;20391;-79
2022/03/15 03:57:59;;;;;;;1.63;1.35;;;20.70;31.60;;;;;;5113223;28;20043;-79
2022/03/15 04:00:26;;;;;;;1.52;1.33;;;20.80;31.60;;;;;;5113115;28;20487;-79
2022/03/15 04:02:52;;;;;;;1.30;1.20;;;20.80;31.60;;;;;;5113098;28;20499;-79
2022/03/15 04:05:18;;;;;;;1.40;1.30;;;20.90;31.60;;;;;;5113008;28;20056;-79
2022/03/15 04:07:44;;;;;;;1.83;1.50;;;20.90;31.60;;;;;;5093590;28;20470;-79
2022/03/15 04:10:10;;;;;;;1.67;1.40;;;20.90;31.50;;;;;;5094643;28;20483;-79
2022/03/15 04:12:38;;;;;;;1.67;1.42;;;20.90;31.50;;;;;;5112970;28;20073;-80
2022/03/15 04:15:05;;;;;;;1.80;1.70;;;20.90;31.50;;;;;;5113240;28;20441;-79
2022/03/15 04:17:31;;;;;;;1.35;1.25;;;20.90;31.50;;;;;;5093286;28;20058;-80
2022/03/15 04:19:57;;;;;;;1.73;1.52;;;20.90;31.50;;;;;;5112594;28;20055;-80
2022/03/15 04:22:22;;;;;;;1.50;1.40;;;20.90;31.50;;;;;;5112908;28;20067;-80
2022/03/15 04:24:49;;;;;;;1.55;1.45;;;20.90;31.50;;;;;;5112593;28;20056;-80
2022/03/15 04:27:15;;;;;;;2.03;1.50;;;20.90;31.50;;;;;;5112847;28;20495;-80
2022/03/15 04:29:41;;;;;;;2.00;1.50;;;20.90;31.50;;;;;;5112974;28;20051;-80
2022/03/15 04:32:07;;;;;;;1.67;1.58;;;20.90;31.50;;;;;;5112659;28;20048;-80
2022/03/15 04:34:33;;;;;;;1.50;1.40;;;20.90;31.50;;;;;;5112815;28;20043;-80
2022/03/15 04:37:00;;;;;;;2.15;1.70;;;20.90;31.50;;;;;;5112635;28;20051;-80
2022/03/15 04:39:26;;;;;;;2.20;1.80;;;20.90;31.50;;;;;;5112672;28;20552;-80
2022/03/15 04:41:52;;;;;;;1.42;1.33;;;20.90;31.60;;;;;;5114895;28;20047;-79
2022/03/15 04:44:17;;;;;;;2.10;1.70;;;20.90;31.60;;;;;;5116048;28;20093;-80
2022/03/15 04:46:44;;;;;;;1.63;1.52;;;20.90;31.60;;;;;;5116642;28;20093;-79
2022/03/15 04:49:10;;;;;;;2.63;1.77;;;20.90;31.60;;;;;;5116016;28;20056;-80
2022/03/15 04:51:35;;;;;;;1.50;1.35;;;20.90;31.60;;;;;;5116099;28;20094;-80
2022/03/15 04:54:01;;;;;;;2.10;1.90;;;20.90;31.60;;;;;;5116080;28;20499;-80
2022/03/15 04:56:27;;;;;;;1.60;1.50;;;20.90;31.60;;;;;;5097548;28;20515;-79
2022/03/15 04:58:52;;;;;;;1.35;1.25;;;20.90;31.60;;;;;;5115943;28;20074;-80
2022/03/15 05:01:18;;;;;;;1.60;1.50;;;20.90;31.60;;;;;;5115892;28;20126;-80
2022/03/15 05:03:44;;;;;;;2.13;1.83;;;20.80;31.50;;;;;;5115815;28;20071;-80
2022/03/15 05:06:09;;;;;;;1.77;1.63;;;20.90;31.60;;;;;;5115779;28;20055;-79
2022/03/15 05:08:35;;;;;;;2.13;1.75;;;20.90;31.60;;;;;;5115827;28;20067;-79
2022/03/15 05:11:07;;;;;;;2.17;1.80;;;20.90;31.60;;;;;;5115788;28;20054;-79
2022/03/15 05:13:40;;;;;;;1.67;1.52;;;20.80;31.60;;;;;;5115755;28;20146;-80
2022/03/15 05:16:10;;;;;;;1.33;1.23;;;20.90;31.70;;;;;;5115828;28;20052;-80
2022/03/15 05:18:37;;;;;;;1.57;1.47;;;20.80;31.60;;;;;;5116063;28;20058;-80
2022/03/15 05:21:03;;;;;;;1.83;1.70;;;20.90;31.60;;;;;;5115846;28;20052;-79
2022/03/15 05:23:30;;;;;;;2.15;1.63;;;20.90;31.60;;;;;;5115592;28;20109;-80
2022/03/15 05:25:55;;;;;;;1.70;1.60;;;20.90;31.60;;;;;;5080143;28;20055;-80
2022/03/15 05:28:21;;;;;;;1.50;1.40;;;20.90;31.60;;;;;;5097366;28;20052;-80
2022/03/15 05:30:47;;;;;;;1.65;1.55;;;20.80;31.60;;;;;;5115397;28;20054;-80
2022/03/15 05:33:12;;;;;;;2.00;1.67;;;20.90;31.60;;;;;;5097090;28;20052;-81
2022/03/15 05:35:40;;;;;;;1.58;1.40;;;20.90;31.70;;;;;;5095647;28;20048;-79
2022/03/15 05:38:09;;;;;;;1.95;1.80;;;20.80;31.60;;;;;;5097327;28;20058;-79
2022/03/15 05:40:34;;;;;;;1.70;1.60;;;20.80;31.60;;;;;;5115212;28;20056;-80
2022/03/15 05:43:00;;;;;;;1.85;1.70;;;20.90;31.70;;;;;;5115851;28;20047;-79
2022/03/15 05:45:26;;;;;;;2.22;1.70;;;20.90;31.70;;;;;;5115083;28;20372;-80
2022/03/15 05:47:53;;;;;;;1.77;1.67;;;20.80;31.80;;;;;;5115187;28;20050;-79
2022/03/15 05:50:18;;;;;;;2.08;1.80;;;20.80;31.90;;;;;;5114888;28;20444;-79
2022/03/15 05:52:44;;;;;;;2.10;1.92;;;20.80;31.90;;;;;;5114907;28;20131;-80
2022/03/15 05:55:10;;;;;;;2.42;1.85;;;20.90;31.90;;;;;;5097068;28;20044;-79
2022/03/15 05:57:39;;;;;;;2.55;1.80;;;20.90;32.00;;;;;;5115034;28;20438;-79
2022/03/15 06:00:14;;;;;;;1.77;1.60;;;20.90;32.00;;;;;;5115166;28;20051;-79
2022/03/15 06:02:40;;;;;;;2.00;1.80;;;20.90;32.00;;;;;;5115402;28;20048;-79
2022/03/15 06:05:07;;;;;;;2.72;2.00;;;20.90;32.00;;;;;;5096412;28;20407;-79
2022/03/15 06:07:33;;;;;;;2.28;1.92;;;20.90;32.00;;;;;;5114621;28;20505;-80
2022/03/15 06:10:00;;;;;;;1.85;1.60;;;20.90;31.90;;;;;;5114643;28;20047;-80
2022/03/15 06:12:26;;;;;;;2.15;1.83;;;20.90;31.90;;;;;;5094945;28;20518;-79
2022/03/15 06:14:52;;;;;;;2.40;1.90;;;20.90;31.90;;;;;;5114545;28;20051;-80
2022/03/15 06:17:18;;;;;;;2.35;2.10;;;20.90;32.50;;;;;;5114545;28;20052;-79
2022/03/15 06:19:44;;;;;;;2.67;2.10;;;20.90;31.90;;;;;;5114557;28;20090;-79
2022/03/15 06:22:10;;;;;;;3.65;2.15;;;20.90;31.90;;;;;;5114534;28;20079;-79
2022/03/15 06:24:36;;;;;;;2.28;1.85;;;20.90;31.90;;;;;;5114486;28;20047;-79
2022/03/15 06:27:02;;;;;;;2.95;2.28;;;20.90;31.90;;;;;;5114534;28;20082;-80
2022/03/15 06:29:28;;;;;;;2.58;2.00;;;20.90;31.90;;;;;;5114211;28;20051;-79
2022/03/15 06:31:54;;;;;;;2.00;1.80;;;20.90;31.90;;;;;;5114340;28;20066;-79
2022/03/15 06:34:22;;;;;;;2.42;1.90;;;20.90;31.90;;;;;;5114450;28;20108;-80
2022/03/15 06:36:48;;;;;;;2.28;1.95;;;21.00;31.90;;;;;;5096417;28;20060;-80
2022/03/15 06:39:14;;;;;;;2.28;1.90;;;21.00;31.90;;;;;;5114129;28;20055;-80
2022/03/15 06:41:39;;;;;;;2.17;1.98;;;21.00;31.90;;;;;;5114497;28;20055;-80
2022/03/15 06:44:06;;;;;;;2.80;1.80;;;20.90;31.80;;;;;;5114293;28;20056;-80
2022/03/15 06:46:33;;;;;;;2.72;1.98;;;20.90;31.80;;;;;;5114316;28;20055;-80
2022/03/15 06:48:59;;;;;;;2.38;2.05;;;21.00;31.90;;;;;;5114083;28;20131;-80
2022/03/15 06:51:25;;;;;;;2.22;2.00;;;20.90;31.80;;;;;;5114170;28;20055;-80
2022/03/15 06:53:52;;;;;;;3.88;2.10;;;21.00;31.90;;;;;;5114085;28;20440;-80
2022/03/15 06:56:18;;;;;;;2.63;2.20;;;21.00;31.80;;;;;;5114129;28;20402;-80
2022/03/15 06:58:45;;;;;;;2.25;1.73;;;21.00;31.80;;;;;;5113962;28;20055;-80
2022/03/15 07:01:11;;;;;;;3.33;2.20;;;21.00;31.80;;;;;;5114143;28;20048;-80
2022/03/15 07:03:36;;;;;;;3.92;2.35;;;21.00;31.80;;;;;;5113601;28;20133;-80
2022/03/15 07:06:02;;;;;;;2.25;1.75;;;21.00;31.90;;;;;;5113701;28;20479;-80
2022/03/15 07:08:28;;;;;;;3.30;2.58;;;21.00;31.90;;;;;;5114228;28;20066;-79
2022/03/15 07:10:54;;;;;;;3.72;2.13;;;21.00;31.90;;;;;;5113818;28;20051;-79
2022/03/15 07:13:20;;;;;;;2.92;2.40;;;21.00;31.90;;;;;;5078596;28;20495;-79
2022/03/15 07:15:45;;;;;;;2.85;2.53;;;21.00;31.90;;;;;;5095201;28;20097;-79
2022/03/15 07:18:11;;;;;;;2.83;2.00;;;21.00;31.90;;;;;;5113763;28;20070;-79
2022/03/15 07:20:37;;;;;;;2.95;2.40;;;21.00;31.90;;;;;;5095361;28;20403;-79
2022/03/15 07:23:04;;;;;;;3.42;2.83;;;21.00;31.90;;;;;;5113656;28;20047;-79
2022/03/15 07:25:30;;;;;;;3.55;2.40;;;21.00;31.90;;;;;;5113412;28;20043;-79
2022/03/15 07:27:57;;;;;;;2.83;2.15;;;21.00;31.80;;;;;;5095550;28;20055;-79
2022/03/15 07:30:23;;;;;;;2.97;2.40;;;21.00;31.80;;;;;;5113435;28;20048;-79
2022/03/15 07:32:49;;;;;;;3.38;2.55;;;21.00;31.80;;;;;;5078229;28;20055;-80
2022/03/15 07:35:15;;;;;;;2.78;2.30;;;21.00;31.80;;;;;;5113694;28;20138;-80
2022/03/15 07:37:49;;;;;;;3.35;2.47;;;21.00;31.80;;;;;;5113513;28;20060;-80
2022/03/15 07:40:14;;;;;;;2.70;2.22;;;21.10;31.80;;;;;;5113323;28;20047;-81
2022/03/15 07:42:41;;;;;;;2.63;2.10;;;21.00;31.80;;;;;;5113326;28;20052;-81
2022/03/15 07:45:08;;;;;;;3.22;2.40;;;21.00;31.80;;;;;;5113326;28;20039;-81
2022/03/15 07:47:34;;;;;;;4.88;2.80;;;21.10;31.80;;;;;;5113099;28;20440;-80
2022/03/15 07:50:00;;;;;;;4.07;2.78;;;21.10;31.80;;;;;;5113002;28;20108;-81
2022/03/15 07:52:26;;;;;;;3.13;2.53;;;21.10;31.80;;;;;;5076216;28;20070;-81
2022/03/15 07:54:52;;;;;;;2.92;2.22;;;21.10;31.80;;;;;;5094453;28;20101;-81
2022/03/15 07:57:17;;;;;;;3.38;2.65;;;21.10;31.70;;;;;;5113503;28;20051;-81
2022/03/15 07:59:43;;;;;;;3.80;2.53;;;21.10;31.70;;;;;;5093070;28;20055;-81
2022/03/15 08:02:09;;;;;;;3.30;2.40;;;21.10;31.70;;;;;;5113121;28;20051;-81
2022/03/15 08:04:34;;;;;;;3.80;2.47;;;21.10;31.70;;;;;;5112981;28;20368;-81
2022/03/15 08:07:00;;;;;;;3.58;2.50;;;21.10;31.70;;;;;;5113054;28;20051;-81
2022/03/15 08:09:25;;;;;;;4.40;2.85;;;21.10;31.70;;;;;;5112816;28;20052;-81
2022/03/15 08:11:51;;;;;;;4.10;2.72;;;21.10;31.70;;;;;;5113265;28;20051;-81
2022/03/15 08:14:17;;;;;;;2.65;2.22;;;21.10;31.70;;;;;;5113280;28;20050;-81
2022/03/15 08:16:42;;;;;;;4.30;2.45;;;21.10;31.70;;;;;;5115097;28;20074;-81
2022/03/15 08:19:09;;;;;;;4.25;2.75;;;21.10;31.70;;;;;;5116360;28;20134;-81
2022/03/15 08:21:36;;;;;;;3.25;2.53;;;21.20;31.70;;;;;;5116571;28;20074;-81
2022/03/15 08:24:01;;;;;;;4.03;2.30;;;21.20;31.70;;;;;;5116440;28;20192;-81
2022/03/15 08:26:27;;;;;;;3.13;2.55;;;21.20;31.70;;;;;;5098085;28;20122;-81
2022/03/15 08:28:52;;;;;;;3.58;2.72;;;21.20;31.70;;;;;;5116368;28;20052;-81
2022/03/15 08:31:18;;;;;;;3.78;2.80;;;21.20;31.60;;;;;;5116681;28;20048;-81
2022/03/15 08:33:47;;;;;;;4.28;2.33;;;21.20;31.60;;;;;;5116176;28;20048;-81
2022/03/15 08:36:13;;;;;;;3.17;2.50;;;21.20;31.60;;;;;;5116194;28;20059;-81
2022/03/15 08:38:39;;;;;;;3.92;2.90;;;21.20;31.60;;;;;;5098064;28;20058;-81
2022/03/15 08:41:06;;;;;;;3.97;2.75;;;21.20;31.60;;;;;;5097797;28;20048;-81
2022/03/15 08:43:31;;;;;;;2.63;2.17;;;21.30;31.60;;;;;;5116030;28;20075;-81
2022/03/15 08:45:58;;;;;;;3.50;2.75;;;21.30;31.60;;;;;;5115717;28;20095;-81
2022/03/15 08:48:23;;;;;;;3.70;2.72;;;21.30;31.60;;;;;;5115929;28;20056;-81
2022/03/15 08:50:49;;;;;;;3.58;2.53;;;21.30;31.60;;;;;;5097809;28;20089;-81
2022/03/15 08:53:15;;;;;;;3.90;2.67;;;21.30;31.60;;;;;;5115924;28;20055;-81
2022/03/15 08:55:41;;;;;;;3.58;2.75;;;21.30;31.60;;;;;;5097572;28;20047;-81
2022/03/15 08:58:06;;;;;;;4.05;2.80;;;21.30;31.60;;;;;;5115817;28;20098;-81
2022/03/15 09:00:32;;;;;;;3.22;2.53;;;21.30;32.10;;;;;;5115840;28;20510;-81
2022/03/15 09:02:58;;;;;;;3.65;2.55;;;21.30;31.60;;;;;;5097473;28;20531;-81
2022/03/15 09:05:23;;;;;;;4.82;2.83;;;21.30;31.60;;;;;;5096592;28;20051;-81
2022/03/15 09:07:52;;;;;;;4.72;2.92;;;21.30;31.50;;;;;;5095239;28;20044;-81
2022/03/15 09:10:20;;;;;;;3.30;2.60;;;21.30;31.50;;;;;;5115769;28;20054;-81
2022/03/15 09:12:45;;;;;;;3.80;2.53;;;21.40;31.50;;;;;;5097617;28;20063;-81
2022/03/15 09:15:11;;;;;;;5.10;2.53;;;21.40;31.60;;;;;;5096159;28;20048;-81
2022/03/15 09:17:39;;;;;;;4.60;3.22;;;21.30;31.50;;;;;;5115541;28;20127;-81
2022/03/15 09:20:05;;;;;;;4.20;2.70;;;21.30;31.50;;;;;;5115331;28;20055;-81
2022/03/15 09:22:31;;;;;;;4.70;2.83;;;21.30;31.50;;;;;;5096393;28;20720;-81
2022/03/15 09:24:57;;;;;;;3.42;2.70;;;21.30;31.50;;;;;;5115246;28;20047;-81
2022/03/15 09:27:22;;;;;;;3.83;2.85;;;21.40;31.50;;;;;;5114590;28;20130;-81
2022/03/15 09:29:48;;;;;;;4.53;2.80;;;21.40;31.50;;;;;;5114804;28;20051;-81
2022/03/15 09:32:15;;;;;;;4.13;2.92;;;21.40;31.50;;;;;;5115419;28;20056;-81
2022/03/15 09:34:41;;;;;;;5.18;3.30;;;21.40;31.50;;;;;;5115317;28;20503;-81
2022/03/15 09:37:07;;;;;;;4.70;3.13;;;21.40;31.50;;;;;;5115332;28;20051;-81
2022/03/15 09:39:33;;;;;;;4.13;3.10;;;21.40;31.50;;;;;;5114898;28;20518;-81
2022/03/15 09:42:00;;;;;;;4.30;3.40;;;21.40;31.50;;;;;;5115107;28;20040;-81
2022/03/15 09:44:30;;;;;;;3.40;2.85;;;21.40;31.50;;;;;;5115238;28;20047;-81
2022/03/15 09:47:03;;;;;;;5.82;3.58;;;21.40;31.50;;;;;;5096734;28;20499;-81
2022/03/15 09:49:30;;;;;;;4.15;3.17;;;21.40;31.50;;;;;;5096644;28;20150;-81
2022/03/15 09:51:57;;;;;;;3.92;2.95;;;21.40;31.40;;;;;;5096782;28;20059;-81
2022/03/15 09:54:25;;;;;;;4.70;3.35;;;21.40;31.40;;;;;;5114924;28;20067;-81
2022/03/15 09:56:51;;;;;;;3.75;3.13;;;21.50;31.50;;;;;;5114985;28;20052;-81
2022/03/15 09:59:19;;;;;;;4.15;3.05;;;21.50;31.50;;;;;;5114794;28;20492;-81
2022/03/15 10:01:50;;;;;;;5.03;3.58;;;21.50;31.40;;;;;;5114684;28;20055;-81
2022/03/15 10:04:16;;;;;;;3.70;3.10;;;21.50;31.40;;;;;;5079853;28;20131;-81
2022/03/15 10:06:42;;;;;;;4.40;3.08;;;21.50;31.40;;;;;;5114744;28;20051;-81
2022/03/15 10:09:08;;;;;;;4.88;3.10;;;21.50;31.40;;;;;;5095142;28;20400;-81
2022/03/15 10:11:35;;;;;;;4.28;2.85;;;21.50;31.40;;;;;;5096314;28;20138;-81
2022/03/15 10:14:02;;;;;;;4.47;3.38;;;21.50;31.40;;;;;;5114591;28;20054;-81
2022/03/15 10:16:36;;;;;;;7.10;3.47;;;21.50;31.40;;;;;;5114648;28;20051;-81
2022/03/15 10:19:02;;;;;;;4.82;3.28;;;21.50;31.40;;;;;;5114413;28;20055;-81
2022/03/15 10:21:48;;;;;;;5.03;3.47;;;21.50;31.40;;;;;;5114182;28;20054;-81
2022/03/15 10:24:20;;;;;;;4.55;3.20;;;21.50;31.40;;;;;;5114513;28;20044;-81
2022/03/15 10:26:52;;;;;;;4.85;3.65;;;21.50;31.40;;;;;;5096216;28;20098;-81
2022/03/15 10:29:19;;;;;;;3.85;2.72;;;21.50;31.40;;;;;;5096128;28;20060;-81
2022/03/15 10:31:45;;;;;;;4.20;3.30;;;21.50;31.40;;;;;;5114375;28;20047;-81
2022/03/15 10:34:12;;;;;;;5.47;3.28;;;21.50;31.40;;;;;;5096332;28;20118;-81
2022/03/15 10:36:46;;;;;;;3.72;2.90;;;21.50;31.40;;;;;;5114283;28;20092;-81
2022/03/15 10:39:14;;;;;;;3.70;3.00;;;21.50;31.40;;;;;;5113301;28;20372;-81
2022/03/15 10:41:45;;;;;;;4.22;3.10;;;21.50;31.40;;;;;;5095983;28;20163;-81
2022/03/15 10:44:16;;;;;;;4.38;2.97;;;21.50;31.40;;;;;;5096090;28;20475;-81
2022/03/15 10:46:41;;;;;;;3.40;2.50;;;21.50;31.40;;;;;;5095783;28;20058;-81
2022/03/15 10:49:07;;;;;;;4.85;3.15;;;21.50;31.40;;;;;;5113999;28;20044;-81
2022/03/15 10:51:33;;;;;;;4.68;3.40;;;21.50;31.40;;;;;;5114288;28;20063;-81
2022/03/15 10:54:02;;;;;;;4.00;2.95;;;21.50;31.40;;;;;;5095742;28;20047;-81
2022/03/15 10:56:28;;;;;;;4.65;3.40;;;21.50;31.40;;;;;;5113924;28;20056;-81
2022/03/15 10:59:05;;;;;;;4.53;3.20;;;21.50;31.40;;;;;;5095456;28;20062;-81
2022/03/15 11:01:38;;;;;;;5.28;3.10;;;21.50;31.40;;;;;;5095824;28;20047;-81
2022/03/15 11:04:06;;;;;;;;;;;21.50;31.40;;;;;;5114250;28;20055;-81
2022/03/15 11:06:37;;;;;;;5.40;3.10;;;21.50;31.30;;;;;;5113731;28;19919;-81
2022/03/15 11:09:26;;;;;;;4.65;3.35;;;21.50;31.30;;;;;;5113727;28;20059;-81
2022/03/15 11:12:05;;;;;;;4.55;3.05;;;21.50;31.30;;;;;;5113757;28;20079;-81
2022/03/15 11:14:40;;;;;;;5.60;3.13;;;21.50;31.30;;;;;;5113826;28;20052;-81
2022/03/15 11:17:20;;;;;;;5.78;3.85;;;21.60;31.40;;;;;;5113767;28;20064;-81
2022/03/15 11:19:51;;;;;;;4.72;3.15;;;21.60;31.40;;;;;;5093967;28;20094;-81
2022/03/15 11:22:20;;;;;;;;;;;21.60;31.40;;;;;;5096034;28;20051;-81
2022/03/15 11:25:04;;;;;;;4.93;3.28;;;21.60;31.40;;;;;;5093597;28;19920;-81
2022/03/15 11:27:32;;;;;;;9.10;3.70;;;21.60;31.40;;;;;;5113398;28;20499;-81
2022/03/15 11:30:02;;;;;;;4.32;3.00;;;21.60;31.40;;;;;;5113234;28;20138;-81
2022/03/15 11:32:31;;;;;;;5.80;3.55;;;21.60;31.40;;;;;;5095515;28;20142;-81
2022/03/15 11:34:57;;;;;;;6.70;3.30;;;21.60;31.40;;;;;;5113017;28;20059;-81
2022/03/15 11:37:22;;;;;;;4.82;3.53;;;21.60;31.40;;;;;;5113003;28;20055;-81
2022/03/15 11:39:49;;;;;;;4.55;3.38;;;21.60;31.30;;;;;;5112979;28;20055;-81
2022/03/15 11:42:17;;;;;;;5.47;3.22;;;21.60;31.40;;;;;;5112934;28;20500;-81
2022/03/15 11:45:02;;;;;;;10.18;3.75;;;21.60;31.40;;;;;;5112821;28;20047;-81
2022/03/15 11:47:40;;;;;;;7.35;3.95;;;21.50;31.40;;;;;;5112828;28;20063;-81
2022/03/15 11:50:12;;;;;;;5.75;3.47;;;21.60;31.40;;;;;;5094518;28;20089;-81
2022/03/15 11:53:05;;;;;;;6.85;3.50;;;21.50;31.40;;;;;;5113428;28;20055;-81
2022/03/15 11:55:52;;;;;;;5.07;3.00;;;21.60;31.40;;;;;;5113184;28;20052;-81
2022/03/15 11:58:28;;;;;;;5.13;3.45;;;21.50;31.40;;;;;;5094758;28;20084;-81
2022/03/15 12:00:57;;;;;;;4.85;3.45;;;21.50;31.40;;;;;;5095062;28;20130;-81
2022/03/15 12:03:23;;;;;;;6.55;3.55;;;21.50;31.40;;;;;;5112998;28;20052;-81
2022/03/15 12:05:57;;;;;;;6.53;3.85;;;21.50;31.40;;;;;;5112811;28;20047;-81
2022/03/15 12:08:26;;;;;;;6.10;3.63;;;21.50;31.40;;;;;;5113006;28;20051;-81
2022/03/15 12:11:05;;;;;;;6.20;3.88;;;21.50;31.40;;;;;;5112844;28;20388;-81
2022/03/15 12:13:41;;;;;;;6.07;3.70;;;21.50;31.40;;;;;;5094470;28;20052;-81
2022/03/15 12:16:15;;;;;;;5.28;3.50;;;21.50;31.40;;;;;;5094633;28;20051;-80
2022/03/15 12:18:46;;;;;;;5.22;3.90;;;21.50;31.40;;;;;;5112887;28;20993;-81
2022/03/15 12:21:13;;;;;;;5.07;3.55;;;21.50;31.40;;;;;;5113262;28;20059;-81
2022/03/15 12:23:45;;;;;;;6.30;3.33;;;21.50;31.40;;;;;;5077703;28;20051;-81
2022/03/15 12:26:26;;;;;;;5.20;3.90;;;21.50;31.40;;;;;;5112706;28;20100;-81
2022/03/15 12:28:57;;;;;;;4.82;3.28;;;21.50;31.40;;;;;;5077575;28;20402;-80
2022/03/15 12:31:42;;;;;;;6.00;3.83;;;21.50;31.40;;;;;;5112728;28;20465;-81
2022/03/15 12:34:15;;;;;;;6.97;3.65;;;21.50;31.40;;;;;;5112634;28;20376;-81
2022/03/15 12:36:54;;;;;;;6.43;3.83;;;21.50;31.40;;;;;;5094176;28;20458;-81
2022/03/15 12:39:22;;;;;;;5.40;3.72;;;21.50;32.00;;;;;;5094246;28;20143;-81
2022/03/15 12:42:03;;;;;;;7.07;4.13;;;21.50;31.40;;;;;;5112493;28;20044;-81
2022/03/15 12:44:52;;;;;;;6.67;3.50;;;21.50;31.40;;;;;;5094174;28;20059;-81
2022/03/15 12:47:22;;;;;;;7.25;3.88;;;21.50;31.40;;;;;;5112337;28;20043;-81
2022/03/15 12:50:15;;;;;;;6.78;3.33;;;21.50;31.40;;;;;;5093474;28;20576;-81